Time;durP1;ratioP1;P1;durP2;ratioP2;P2;SDS_P1;SDS_P2;PMS_P1;PMS_P2;Temp;Humidity;BMP_temperature;BMP_pressure;BME280_temperature;BME280_humidity;BME280_pressure;Samples;Min_cycle;Max_cycle;Signal;HPM_P1;HPM_P2
2024/02/03 00:00:37;;;;;;;23.60;15.55;;;;;;;7.95;100.00;102149.56;5034612;28;20056;-90
2024/02/03 00:03:15;;;;;;;23.10;15.98;;;;;;;7.95;100.00;102148.72;5035544;28;20057;-84
2024/02/03 00:05:43;;;;;;;24.20;16.05;;;;;;;7.95;100.00;102138.19;5035561;28;20088;-85
2024/02/03 00:08:10;;;;;;;23.58;15.05;;;;;;;7.93;100.00;102140.03;5034382;28;20041;-84
2024/02/03 00:10:37;;;;;;;23.77;15.65;;;;;;;7.95;100.00;102139.03;5034230;28;20356;-82
2024/02/03 00:13:09;;;;;;;24.27;15.38;;;;;;;7.97;100.00;102139.78;5033898;28;20054;-82
2024/02/03 00:15:39;;;;;;;26.15;16.10;;;;;;;7.95;100.00;102135.53;5033893;28;20049;-82
2024/02/03 00:18:10;;;;;;;26.35;16.95;;;;;;;7.96;100.00;102130.19;5034449;28;20045;-82
2024/02/03 00:20:39;;;;;;;22.45;15.40;;;;;;;7.97;100.00;102133.66;5034271;28;20076;-81
2024/02/03 00:23:09;;;;;;;23.83;15.93;;;;;;;7.94;100.00;102136.44;5033371;28;20041;-82
2024/02/03 00:25:37;;;;;;;23.67;15.60;;;;;;;7.97;100.00;102138.94;5026599;28;20037;-81
2024/02/03 00:28:06;;;;;;;23.60;15.85;;;;;;;7.95;100.00;102133.75;5031726;28;20122;-84
2024/02/03 00:30:36;;;;;;;25.13;15.80;;;;;;;7.96;100.00;102132.81;5020289;28;20536;-83
2024/02/03 00:33:03;;;;;;;24.02;16.35;;;;;;;7.94;100.00;102132.03;5034059;28;20073;-82
2024/02/03 00:35:31;;;;;;;23.33;15.48;;;;;;;7.94;100.00;102126.75;5037138;28;20064;-83
2024/02/03 00:37:58;;;;;;;22.42;15.25;;;;;;;7.99;100.00;102130.03;5037893;28;20054;-82
2024/02/03 00:40:30;;;;;;;25.05;16.17;;;;;;;7.94;100.00;102125.91;5038093;28;20048;-82
2024/02/03 00:43:09;;;;;;;23.67;14.90;;;;;;;7.96;100.00;102130.19;5037814;28;20074;-82
2024/02/03 00:48:19;;;;;;;22.00;14.77;;;;;;;7.98;100.00;102117.75;4965522;28;20082;-79
2024/02/03 00:50:50;;;;;;;21.65;14.05;;;;;;;8.00;100.00;102121.19;5025325;28;20042;-80
2024/02/03 00:53:17;;;;;;;22.63;14.30;;;;;;;8.03;100.00;102115.72;5024421;28;20045;-81
2024/02/03 00:55:44;;;;;;;23.58;14.55;;;;;;;8.01;100.00;102116.75;5025840;28;20056;-80
2024/02/03 00:58:11;;;;;;;20.27;14.10;;;;;;;8.06;100.00;102125.28;5025106;28;20108;-81
2024/02/03 01:00:42;;;;;;;21.38;15.05;;;;;;;8.09;100.00;102130.38;5025489;28;20048;-80
2024/02/03 01:03:18;;;;;;;20.88;14.52;;;;;;;8.06;100.00;102134.03;5030027;28;20108;-80
2024/02/03 01:05:45;;;;;;;23.23;14.50;;;;;;;8.11;100.00;102116.19;5030380;28;20118;-82
2024/02/03 01:08:16;;;;;;;21.35;14.13;;;;;;;8.11;100.00;102116.19;5025857;28;20057;-80
2024/02/03 01:10:47;;;;;;;19.70;13.23;;;;;;;8.12;100.00;102127.56;5024486;28;20111;-80
2024/02/03 01:13:19;;;;;;;20.50;13.82;;;;;;;8.10;100.00;102130.28;5025269;28;20508;-80
2024/02/03 01:15:46;;;;;;;19.58;12.95;;;;;;;8.13;100.00;102125.81;5024728;28;20100;-81
2024/02/03 01:18:17;;;;;;;20.88;13.63;;;;;;;8.13;100.00;102125.81;5024124;28;20109;-81
2024/02/03 01:20:44;;;;;;;20.25;13.30;;;;;;;8.15;100.00;102126.56;5024259;28;20074;-80
2024/02/03 01:23:11;;;;;;;17.77;12.90;;;;;;;8.18;100.00;102121.16;5023082;28;20049;-82
2024/02/03 01:25:40;;;;;;;18.52;13.00;;;;;;;8.16;100.00;102129.13;5023112;28;20109;-81
2024/02/03 01:28:15;;;;;;;20.05;13.07;;;;;;;8.16;100.00;102136.19;5023245;28;20046;-81
2024/02/03 01:30:42;;;;;;;18.40;12.15;;;;;;;8.19;100.00;102139.50;5023574;28;20046;-82
2024/02/03 01:33:09;;;;;;;19.20;12.25;;;;;;;8.16;100.00;102129.13;5024514;28;20509;-82
2024/02/03 01:35:36;;;;;;;18.27;12.32;;;;;;;8.17;100.00;102133.47;5025804;28;20061;-81
2024/02/03 01:38:02;;;;;;;19.15;12.70;;;;;;;8.17;100.00;102141.38;5024466;28;20050;-82
2024/02/03 01:46:05;;;;;;;17.58;12.07;;;;;;;8.08;100.00;102119.00;4972512;28;20079;-80
2024/02/03 01:48:33;;;;;;;17.90;11.82;;;;;;;8.09;100.00;102110.16;5003603;28;20042;-82
2024/02/03 01:51:01;;;;;;;16.20;11.45;;;;;;;8.10;100.00;102111.84;5008197;28;20046;-81
2024/02/03 01:53:28;;;;;;;17.08;11.77;;;;;;;8.09;100.00;102104.88;5038702;23;20038;-78
2024/02/03 01:55:57;;;;;;;18.85;12.70;;;;;;;8.09;100.00;102110.16;5015842;28;20046;-79
2024/02/03 01:58:26;;;;;;;18.05;11.80;;;;;;;8.08;100.00;102108.44;5007560;28;20054;-78
2024/02/03 02:00:54;;;;;;;18.58;11.75;;;;;;;8.08;100.00;102108.44;5015885;28;20129;-79
2024/02/03 02:03:20;;;;;;;17.55;11.52;;;;;;;8.10;100.00;102117.13;5010879;28;20085;-79
2024/02/03 02:05:48;;;;;;;17.10;11.32;;;;;;;8.16;100.00;102107.16;5011204;28;20054;-80
2024/02/03 02:08:14;;;;;;;17.20;11.95;;;;;;;8.14;100.00;102101.16;5009686;28;20077;-81
2024/02/03 02:10:41;;;;;;;17.70;11.75;;;;;;;8.11;100.00;102103.00;5010684;28;20136;-80
2024/02/03 02:13:11;;;;;;;15.98;10.73;;;;;;;8.14;100.00;102101.16;5008493;28;20100;-79
2024/02/03 02:15:39;;;;;;;16.88;11.43;;;;;;;8.15;100.00;102094.94;5009764;28;20137;-78
2024/02/03 02:18:06;;;;;;;17.50;11.68;;;;;;;8.18;100.00;102102.69;5008772;28;20120;-79
2024/02/03 02:20:34;;;;;;;15.15;10.40;;;;;;;8.15;100.00;102105.47;5006260;28;20057;-79
2024/02/03 02:23:01;;;;;;;16.00;10.43;;;;;;;8.20;100.00;102090.25;5013483;28;20048;-79
2024/02/03 02:25:28;;;;;;;16.90;11.52;;;;;;;8.18;100.00;102081.59;5007575;28;20050;-78
2024/02/03 02:27:57;;;;;;;18.67;11.95;;;;;;;8.21;100.00;102086.66;5015849;28;20045;-78
2024/02/03 02:30:23;;;;;;;19.88;10.90;;;;;;;8.20;100.00;102083.19;5009520;28;20468;-79
2024/02/03 02:32:50;;;;;;;17.67;11.50;;;;;;;8.19;100.00;102088.56;5007625;28;20053;-79
2024/02/03 02:35:17;;;;;;;17.90;11.27;;;;;;;8.21;100.00;102097.22;5012208;28;20049;-79
2024/02/03 02:37:45;;;;;;;17.33;11.60;;;;;;;8.21;100.00;102086.66;5009867;28;20264;-80
2024/02/03 02:40:13;;;;;;;16.52;11.07;;;;;;;8.25;100.00;102088.22;5005675;28;20105;-80
2024/02/03 02:42:40;;;;;;;15.30;10.52;;;;;;;8.21;100.00;102086.66;5008760;28;20050;-80
2024/02/03 02:45:07;;;;;;;17.35;11.05;;;;;;;8.24;100.00;102081.25;5000294;28;20132;-79
2024/02/03 02:47:36;;;;;;;14.75;10.32;;;;;;;8.24;100.00;102065.41;5011695;28;20050;-79
2024/02/03 02:50:03;;;;;;;16.17;10.52;;;;;;;8.28;100.00;102066.97;5011084;28;20045;-80
2024/02/03 02:52:31;;;;;;;17.08;10.68;;;;;;;8.28;100.00;102066.97;5006516;28;20057;-79
2024/02/03 02:54:59;;;;;;;13.52;9.32;;;;;;;8.27;100.00;102065.25;5007608;28;20046;-80
2024/02/03 02:57:25;;;;;;;14.73;10.75;;;;;;;8.27;100.00;102060.84;5009544;28;20050;-78
2024/02/03 02:59:55;;;;;;;14.00;9.52;;;;;;;8.26;100.00;102059.13;5011401;28;20046;-80
2024/02/03 03:02:22;;;;;;;14.05;9.95;;;;;;;8.30;100.00;102062.44;5008656;28;20050;-80
2024/02/03 03:04:48;;;;;;;15.45;9.77;;;;;;;8.30;100.00;102068.59;5011486;28;20052;-80
2024/02/03 03:07:16;;;;;;;13.43;8.95;;;;;;;8.33;100.00;102067.56;5009143;28;20077;-79
2024/02/03 03:09:43;;;;;;;15.20;9.45;;;;;;;8.33;100.00;102062.28;5009993;28;20054;-80
2024/02/03 03:12:13;;;;;;;16.17;9.65;;;;;;;8.26;100.00;102055.63;5013117;28;20081;-80
2024/02/03 03:14:40;;;;;;;14.93;9.30;;;;;;;8.32;100.00;102058.78;5009147;28;20054;-79
2024/02/03 03:17:06;;;;;;;12.63;8.57;;;;;;;8.35;100.00;102063.91;5009522;28;20077;-80
2024/02/03 03:19:37;;;;;;;12.77;8.52;;;;;;;8.32;100.00;102047.41;5005849;28;20598;-80
2024/02/03 03:22:04;;;;;;;11.88;8.45;;;;;;;8.32;100.00;102042.97;5006199;28;20077;-81
2024/02/03 03:24:31;;;;;;;13.27;9.20;;;;;;;8.34;100.00;102034.97;5007171;28;20105;-80
2024/02/03 03:26:57;;;;;;;12.65;8.85;;;;;;;8.34;100.00;102037.59;5004589;28;20053;-80
2024/02/03 03:29:25;;;;;;;12.25;8.60;;;;;;;8.38;100.00;102035.69;5006086;28;20118;-80
2024/02/03 03:31:52;;;;;;;11.52;8.30;;;;;;;8.43;100.00;102034.47;5006196;28;20085;-80
2024/02/03 03:34:18;;;;;;;11.98;8.82;;;;;;;8.36;100.00;102033.09;5005135;28;20057;-80
2024/02/03 03:36:45;;;;;;;10.82;8.25;;;;;;;8.40;100.00;102026.75;5004371;28;20046;-80
2024/02/03 03:39:12;;;;;;;13.77;9.13;;;;;;;8.40;100.00;102033.81;5004800;28;20182;-81
2024/02/03 03:41:38;;;;;;;11.38;8.32;;;;;;;8.42;100.00;102034.56;5002792;28;20580;-80
2024/02/03 03:44:05;;;;;;;11.30;8.15;;;;;;;8.44;100.00;102016.84;5004888;28;20042;-80
2024/02/03 03:46:33;;;;;;;13.07;8.57;;;;;;;8.47;100.00;102024.59;5004194;28;20512;-80
2024/02/03 03:49:00;;;;;;;11.60;8.35;;;;;;;8.46;100.00;102022.91;5008016;28;20049;-80
2024/02/03 03:51:27;;;;;;;11.98;8.50;;;;;;;8.49;100.00;102026.25;4999328;28;20464;-78
2024/02/03 03:53:53;;;;;;;12.82;9.15;;;;;;;8.52;100.00;102018.13;4999382;28;20065;-78
2024/02/03 03:56:20;;;;;;;16.05;9.80;;;;;;;8.50;100.00;102019.16;4998475;28;20046;-81
2024/02/03 03:58:47;;;;;;;13.63;9.63;;;;;;;8.48;100.00;102026.31;5005422;28;20137;-81
2024/02/03 04:01:13;;;;;;;15.52;10.48;;;;;;;8.51;100.00;102019.06;5005765;28;20050;-81
2024/02/03 04:03:41;;;;;;;14.35;10.13;;;;;;;8.52;100.00;102014.66;5004069;28;20050;-80
2024/02/03 04:06:08;;;;;;;15.27;9.93;;;;;;;8.52;100.00;102018.13;5003391;28;20130;-80
2024/02/03 04:08:35;;;;;;;16.42;10.30;;;;;;;8.53;100.00;102011.94;5005884;28;20050;-80
2024/02/03 04:11:02;;;;;;;15.65;9.98;;;;;;;8.55;100.00;102012.69;5017391;28;20054;-80
2024/02/03 04:13:31;;;;;;;16.10;9.90;;;;;;;8.55;100.00;102017.13;5016229;28;20043;-79
2024/02/03 04:15:57;;;;;;;15.82;10.45;;;;;;;8.54;100.00;102023.34;5019091;28;20038;-79
2024/02/03 04:18:25;;;;;;;14.75;10.70;;;;;;;8.53;100.00;102017.22;5010790;28;20065;-80
2024/02/03 04:20:53;;;;;;;15.38;10.27;;;;;;;8.56;100.00;102024.94;5008999;28;20046;-80
2024/02/03 04:23:20;;;;;;;17.27;11.75;;;;;;;8.55;100.00;102017.97;5009584;28;20062;-80
2024/02/03 04:25:46;;;;;;;16.67;12.02;;;;;;;8.48;100.00;102007.84;5010869;28;20058;-81
2024/02/03 04:28:13;;;;;;;18.75;11.57;;;;;;;8.52;100.00;102012.00;5000375;28;20566;-77
2024/02/03 04:30:39;;;;;;;16.73;11.13;;;;;;;8.56;100.00;102014.38;4997274;28;20485;-77
2024/02/03 04:33:06;;;;;;;15.65;11.18;;;;;;;8.53;100.00;102014.56;4998185;28;20101;-77
2024/02/03 04:35:34;;;;;;;15.82;11.75;;;;;;;8.51;100.00;102007.66;5002638;28;20096;-77
2024/02/03 04:38:02;;;;;;;15.45;11.02;;;;;;;8.57;100.00;102002.91;4996993;28;20141;-77
2024/02/03 04:40:29;;;;;;;15.15;9.95;;;;;;;8.57;100.00;102009.94;5000074;28;20133;-76
2024/02/03 04:42:58;;;;;;;15.70;10.90;;;;;;;8.58;100.00;102007.25;5001831;28;20187;-77
2024/02/03 04:45:25;;;;;;;15.02;9.55;;;;;;;8.61;99.47;102004.41;4992092;28;20046;-77
2024/02/03 04:47:51;;;;;;;15.88;10.05;;;;;;;8.61;100.00;102009.69;4994265;28;20108;-77
2024/02/03 04:50:19;;;;;;;14.25;9.68;;;;;;;8.60;100.00;102008.00;4992996;28;20082;-77
2024/02/03 04:52:45;;;;;;;14.55;10.35;;;;;;;8.61;99.65;102007.03;4994927;28;20423;-76
2024/02/03 04:55:18;;;;;;;13.60;9.93;;;;;;;8.69;98.98;102011.06;4995432;28;20133;-77
2024/02/03 04:57:45;;;;;;;13.57;8.77;;;;;;;8.64;99.44;102013.09;4994301;28;20182;-77
2024/02/03 05:00:13;;;;;;;12.85;9.30;;;;;;;8.63;99.52;102006.97;4994200;28;20487;-77
2024/02/03 05:02:40;;;;;;;13.60;9.50;;;;;;;8.63;99.67;102008.78;4994544;28;20496;-77
2024/02/03 05:05:08;;;;;;;12.40;9.15;;;;;;;8.65;99.36;102006.88;4995060;28;20052;-77
2024/02/03 05:07:35;;;;;;;13.10;9.57;;;;;;;8.64;99.30;102003.41;4995853;28;20058;-76
2024/02/03 05:10:02;;;;;;;14.25;9.65;;;;;;;8.61;100.00;101996.50;4993328;28;20061;-77
2024/02/03 05:12:31;;;;;;;12.93;9.27;;;;;;;8.64;99.77;102005.19;4994307;28;20512;-77
2024/02/03 05:14:58;;;;;;;12.85;9.35;;;;;;;8.59;99.80;102002.81;4993650;28;20146;-76
2024/02/03 05:17:24;;;;;;;16.23;8.63;;;;;;;8.61;99.64;101991.22;4994663;28;20051;-77
2024/02/03 05:19:51;;;;;;;12.10;9.10;;;;;;;8.62;99.70;101984.19;4994046;28;20081;-76
2024/02/03 05:22:18;;;;;;;14.40;8.57;;;;;;;8.64;99.74;101987.56;4989216;28;20110;-77
2024/02/03 05:24:44;;;;;;;11.18;8.27;;;;;;;8.63;99.34;101988.50;4994795;28;20085;-77
2024/02/03 05:27:11;;;;;;;13.27;8.65;;;;;;;8.63;99.55;101985.88;4994901;28;20136;-77
2024/02/03 05:29:41;;;;;;;12.30;8.73;;;;;;;8.67;99.12;101990.03;4994610;28;20133;-77
2024/02/03 05:32:08;;;;;;;14.35;8.65;;;;;;;8.69;98.94;101976.75;4994625;28;20134;-76
2024/02/03 05:34:34;;;;;;;13.02;8.23;;;;;;;8.74;99.22;101979.97;4993870;28;20141;-76
2024/02/03 05:37:01;;;;;;;12.05;8.77;;;;;;;8.73;99.53;101975.63;4993653;28;20077;-76
2024/02/03 05:39:28;;;;;;;14.82;9.30;;;;;;;8.70;99.65;101978.44;4992464;28;20126;-77
2024/02/03 05:41:54;;;;;;;11.73;8.90;;;;;;;8.69;99.60;101976.75;4994166;28;20111;-76
2024/02/03 05:44:21;;;;;;;13.73;9.38;;;;;;;8.73;99.56;101976.47;4993381;28;20081;-77
2024/02/03 05:46:49;;;;;;;14.82;8.60;;;;;;;8.76;99.23;101983.38;4993894;28;20496;-77
2024/02/03 05:49:15;;;;;;;11.82;8.88;;;;;;;8.79;98.96;101986.66;4999130;28;20046;-76
2024/02/03 05:51:42;;;;;;;14.23;10.07;;;;;;;8.81;99.02;101981.31;4999485;28;20133;-77
2024/02/03 05:54:09;;;;;;;12.85;9.20;;;;;;;8.81;99.07;101984.81;4994239;28;20110;-77
2024/02/03 05:56:37;;;;;;;13.85;9.23;;;;;;;8.79;99.44;101983.19;4993098;28;20133;-77
2024/02/03 05:59:04;;;;;;;13.63;9.38;;;;;;;8.84;99.38;101981.16;4994268;28;20058;-77
2024/02/03 06:01:30;;;;;;;16.98;9.15;;;;;;;8.87;99.32;101994.16;4994881;28;20050;-78
2024/02/03 06:03:59;;;;;;;14.60;9.07;;;;;;;8.89;98.90;101992.28;4993716;28;20050;-77
2024/02/03 06:06:26;;;;;;;13.13;8.88;;;;;;;8.88;98.81;101992.34;4993529;28;20051;-77
2024/02/03 06:08:53;;;;;;;14.00;8.88;;;;;;;8.87;99.43;101988.88;4993768;28;20124;-76
2024/02/03 06:11:19;;;;;;;13.73;9.02;;;;;;;8.87;98.96;101994.16;4993990;28;20592;-77
2024/02/03 06:13:46;;;;;;;12.32;8.80;;;;;;;8.89;98.64;101983.53;4994478;28;20126;-77
2024/02/03 06:16:12;;;;;;;13.13;8.90;;;;;;;8.91;98.97;101982.47;5011744;28;20538;-77
2024/02/03 06:18:39;;;;;;;14.07;8.82;;;;;;;8.91;98.66;101987.75;5012790;28;20045;-77
2024/02/03 06:21:07;;;;;;;12.80;8.88;;;;;;;8.91;98.45;101981.63;5005248;28;20110;-76
2024/02/03 06:23:33;;;;;;;13.05;8.80;;;;;;;8.92;98.27;101975.41;5014887;28;20128;-77
2024/02/03 06:26:00;;;;;;;13.45;9.60;;;;;;;8.89;98.86;101981.72;5015331;28;20050;-76
2024/02/03 06:28:27;;;;;;;14.43;9.35;;;;;;;8.93;98.65;101975.31;5010493;28;20046;-76
2024/02/03 06:30:53;;;;;;;12.35;8.98;;;;;;;8.95;98.20;101984.00;4993887;28;20085;-76
2024/02/03 06:33:20;;;;;;;12.95;9.30;;;;;;;8.98;98.25;101982.97;4999565;28;20054;-76
2024/02/03 06:35:46;;;;;;;13.65;9.85;;;;;;;8.95;98.05;101985.78;4992672;28;20142;-77
2024/02/03 06:38:15;;;;;;;12.50;9.18;;;;;;;8.94;97.87;101987.56;4992594;28;20089;-77
2024/02/03 06:40:42;;;;;;;12.85;9.77;;;;;;;8.97;97.98;101991.81;4993143;28;20133;-77
2024/02/03 06:43:08;;;;;;;14.35;9.55;;;;;;;9.00;98.04;101987.22;4993009;28;20066;-77
2024/02/03 06:45:35;;;;;;;12.43;9.13;;;;;;;8.95;98.43;101988.44;4999626;28;20074;-77
2024/02/03 06:48:01;;;;;;;13.65;8.77;;;;;;;8.96;98.88;101984.84;5000632;28;20086;-77
2024/02/03 06:50:28;;;;;;;18.58;10.15;;;;;;;8.94;98.84;101984.09;4998931;28;20085;-77
2024/02/03 06:52:54;;;;;;;16.58;9.68;;;;;;;8.87;100.00;101986.22;4996913;28;20137;-78
2024/02/03 06:55:22;;;;;;;16.45;9.60;;;;;;;8.89;100.00;101981.72;4992940;28;20133;-78
2024/02/03 06:57:49;;;;;;;13.30;9.88;;;;;;;8.88;100.00;101979.16;4993605;28;20050;-79
2024/02/03 07:00:16;;;;;;;16.52;10.15;;;;;;;8.77;100.00;101975.34;4994649;28;20073;-77
2024/02/03 07:02:43;;;;;;;16.00;10.77;;;;;;;8.73;100.00;101979.13;4994899;28;20075;-78
2024/02/03 07:05:09;;;;;;;20.75;14.00;;;;;;;8.73;100.00;101959.78;4994698;28;20054;-79
2024/02/03 07:07:36;;;;;;;22.38;12.75;;;;;;;8.72;100.00;101971.28;4996465;28;20093;-78
2024/02/03 07:10:03;;;;;;;17.30;11.00;;;;;;;8.76;100.00;101973.66;4999529;28;20496;-79
2024/02/03 07:12:31;;;;;;;15.80;11.02;;;;;;;8.73;100.00;101973.84;4995583;28;20089;-79
2024/02/03 07:14:58;;;;;;;16.13;11.05;;;;;;;8.75;100.00;101971.97;4994672;28;20488;-78
2024/02/03 07:17:25;;;;;;;15.68;10.82;;;;;;;8.77;100.00;101961.31;4992696;28;20133;-76
2024/02/03 07:19:51;;;;;;;20.02;11.40;;;;;;;8.81;100.00;101970.75;4993444;28;20112;-79
2024/02/03 07:22:18;;;;;;;16.30;11.20;;;;;;;8.85;100.00;101983.69;5003311;28;20469;-81
2024/02/03 07:24:44;;;;;;;17.10;10.35;;;;;;;8.87;100.00;101983.59;5004092;28;20172;-80
2024/02/03 07:27:11;;;;;;;17.23;10.75;;;;;;;8.92;100.00;101976.25;5002953;28;20108;-80
2024/02/03 07:29:41;;;;;;;17.00;10.65;;;;;;;8.93;100.00;101987.66;4996327;28;20122;-80
2024/02/03 07:32:07;;;;;;;16.65;11.23;;;;;;;8.94;100.00;101984.94;4995831;28;20053;-79
2024/02/03 07:34:34;;;;;;;19.42;10.75;;;;;;;8.97;100.00;101982.09;4996848;28;20046;-80
2024/02/03 07:37:01;;;;;;;15.32;9.90;;;;;;;8.98;100.00;101978.53;4998368;28;20239;-81
2024/02/03 07:39:28;;;;;;;14.60;10.30;;;;;;;8.98;100.00;101977.69;5001772;28;20109;-78
2024/02/03 07:41:54;;;;;;;15.27;10.02;;;;;;;8.99;100.00;101979.38;5001276;28;20409;-80
2024/02/03 07:44:24;;;;;;;14.88;10.35;;;;;;;9.01;100.00;101977.50;5005873;28;20077;-81
2024/02/03 07:46:52;;;;;;;14.27;10.00;;;;;;;9.01;100.00;101973.06;5007748;28;20050;-80
2024/02/03 07:49:18;;;;;;;14.43;9.32;;;;;;;9.07;100.00;101964.78;4996460;28;20144;-78
2024/02/03 07:51:45;;;;;;;12.93;8.93;;;;;;;9.08;99.92;101957.72;5004493;28;20487;-79
2024/02/03 07:56:39;;;;;;;14.77;10.05;;;;;;;9.12;99.25;101961.88;4994963;28;20042;-79
2024/02/03 07:59:06;;;;;;;11.65;9.13;;;;;;;9.15;99.28;101958.19;4992244;28;20077;-78
2024/02/03 08:01:33;;;;;;;12.48;8.77;;;;;;;9.23;98.64;101966.50;4998237;28;20077;-78
2024/02/03 08:04:01;;;;;;;16.13;9.93;;;;;;;9.23;98.31;101958.56;4995654;28;20082;-79
2024/02/03 08:06:27;;;;;;;15.63;9.77;;;;;;;9.29;97.57;101966.16;4976984;28;20069;-79
2024/02/03 08:08:54;;;;;;;14.95;9.68;;;;;;;9.31;97.69;101956.31;4986831;28;20050;-79
2024/02/03 08:11:21;;;;;;;11.38;8.43;;;;;;;9.39;97.79;101962.00;4987609;28;20466;-78
2024/02/03 08:13:48;;;;;;;12.75;9.68;;;;;;;9.41;96.92;101964.53;4993103;28;20043;-78
2024/02/03 08:16:14;;;;;;;20.98;12.40;;;;;;;9.49;96.32;101965.75;4993951;28;20054;-78
2024/02/03 08:18:42;;;;;;;17.13;10.27;;;;;;;9.51;96.75;101968.31;4995580;28;20129;-78
2024/02/03 08:21:10;;;;;;;11.05;8.80;;;;;;;9.53;96.00;101967.28;4990982;28;20089;-78
2024/02/03 08:23:37;;;;;;;13.00;9.30;;;;;;;9.55;95.88;101970.69;4986893;28;20042;-78
2024/02/03 08:26:03;;;;;;;12.68;8.90;;;;;;;9.57;96.04;101975.88;4990566;28;20564;-77
2024/02/03 08:28:30;;;;;;;12.48;8.52;;;;;;;9.61;95.56;101975.59;4983835;28;20113;-77
2024/02/03 08:30:57;;;;;;;14.68;8.60;;;;;;;9.63;95.45;101976.31;4988317;28;20125;-77
2024/02/03 08:33:25;;;;;;;13.18;8.95;;;;;;;9.69;95.23;101980.41;4979222;28;20129;-77
2024/02/03 08:35:51;;;;;;;11.52;8.05;;;;;;;9.62;95.38;101981.72;4985913;28;20145;-77
2024/02/03 08:38:19;;;;;;;10.85;8.63;;;;;;;9.62;95.54;101987.84;4990191;28;20046;-77
2024/02/03 08:40:46;;;;;;;10.75;8.02;;;;;;;9.67;95.98;101987.56;4988881;28;20122;-78
2024/02/03 08:43:13;;;;;;;10.60;8.02;;;;;;;9.67;96.93;101990.22;4990569;28;20406;-78
2024/02/03 08:45:39;;;;;;;11.35;8.70;;;;;;;9.64;97.83;101995.69;4989928;28;20077;-78
2024/02/03 08:48:07;;;;;;;15.23;9.02;;;;;;;9.55;99.04;101981.25;4986258;28;20046;-77
2024/02/03 08:50:33;;;;;;;13.13;8.35;;;;;;;9.56;99.48;101990.88;4987964;28;20130;-79
2024/02/03 08:53:01;;;;;;;12.68;8.30;;;;;;;9.60;99.22;101997.69;4984609;28;20156;-78
2024/02/03 08:55:29;;;;;;;12.82;9.13;;;;;;;9.56;99.62;102005.91;4983389;28;20058;-79
2024/02/03 08:57:56;;;;;;;18.08;9.30;;;;;;;9.61;100.00;101996.72;4993262;28;20129;-78
2024/02/03 09:00:23;;;;;;;14.75;9.13;;;;;;;9.65;100.00;102004.47;4974635;28;20051;-78
2024/02/03 09:02:49;;;;;;;15.85;9.45;;;;;;;9.67;100.00;102002.59;4988628;28;20141;-78
2024/02/03 09:05:16;;;;;;;12.43;8.77;;;;;;;9.70;100.00;102008.53;4990208;28;20089;-78
2024/02/03 09:07:43;;;;;;;17.85;9.40;;;;;;;9.67;100.00;102005.22;4987985;28;20046;-77
2024/02/03 09:10:10;;;;;;;15.18;9.10;;;;;;;9.72;100.00;102008.44;4978839;28;20133;-79
2024/02/03 09:12:39;;;;;;;12.80;9.00;;;;;;;9.77;100.00;102007.19;4974103;28;20050;-78
2024/02/03 09:15:06;;;;;;;14.68;9.95;;;;;;;9.80;100.00;102014.94;4975977;28;20130;-76
2024/02/03 09:17:32;;;;;;;16.15;11.38;;;;;;;9.87;100.00;102013.63;4976385;28;20379;-78
2024/02/03 09:19:59;;;;;;;15.25;9.88;;;;;;;9.83;100.00;102012.13;4976130;28;20097;-78
2024/02/03 09:22:25;;;;;;;13.80;10.57;;;;;;;9.82;100.00;102023.66;4979732;28;20089;-78
2024/02/03 09:24:52;;;;;;;14.75;9.85;;;;;;;9.84;100.00;102021.75;4981203;28;20473;-78
2024/02/03 09:27:19;;;;;;;13.77;10.40;;;;;;;9.74;100.00;102022.41;4980508;28;20046;-79
2024/02/03 09:29:47;;;;;;;16.48;10.18;;;;;;;9.79;100.00;102022.97;4979715;28;20055;-79
2024/02/03 09:32:14;;;;;;;13.60;10.93;;;;;;;9.78;100.00;102032.72;4977182;28;20543;-78
2024/02/03 09:34:47;;;;;;;15.98;11.05;;;;;;;9.79;100.00;102017.69;4978375;28;20051;-79
2024/02/03 09:37:14;;;;;;;16.58;10.48;;;;;;;9.74;100.00;102017.13;4978980;28;20824;-78
2024/02/03 09:39:42;;;;;;;15.27;11.43;;;;;;;9.72;100.00;102019.00;4975912;28;20047;-79
2024/02/03 09:42:09;;;;;;;16.67;11.32;;;;;;;9.75;100.00;102010.91;4975659;28;20055;-78
2024/02/03 09:44:36;;;;;;;18.05;11.23;;;;;;;9.71;100.00;102020.81;4978726;28;20078;-78
2024/02/03 09:47:04;;;;;;;17.00;11.18;;;;;;;9.71;100.00;102017.31;4978070;28;20113;-79
2024/02/03 09:49:31;;;;;;;15.57;10.80;;;;;;;9.69;100.00;102024.47;4980613;28;20556;-79
2024/02/03 09:51:59;;;;;;;17.00;11.02;;;;;;;9.61;100.00;102028.44;4976227;28;20138;-78
2024/02/03 09:54:27;;;;;;;18.88;11.68;;;;;;;9.60;100.00;102033.84;4976122;28;20098;-79
2024/02/03 09:56:53;;;;;;;15.98;11.55;;;;;;;9.58;100.00;102031.28;4974075;28;20097;-78
2024/02/03 09:59:20;;;;;;;16.35;10.85;;;;;;;9.55;100.00;102031.47;4975093;28;20051;-78
2024/02/03 10:01:47;;;;;;;20.85;11.38;;;;;;;9.54;100.00;102039.47;4974792;28;20458;-78
2024/02/03 10:04:16;;;;;;;15.77;11.20;;;;;;;9.49;100.00;102046.84;4974550;28;20326;-78
2024/02/03 10:06:44;;;;;;;16.02;11.27;;;;;;;9.47;100.00;102041.66;4973427;28;20129;-78
2024/02/03 10:09:23;;;;;;;17.90;11.63;;;;;;;9.48;100.00;102051.28;4973668;28;20054;-78
2024/02/03 10:11:50;;;;;;;17.20;10.68;;;;;;;9.46;100.00;102047.84;4974940;28;20055;-78
2024/02/03 10:14:17;;;;;;;15.50;11.07;;;;;;;9.44;100.00;102047.13;4974172;28;20134;-79
2024/02/03 10:16:45;;;;;;;15.57;10.85;;;;;;;9.49;100.00;102047.69;4974581;28;20124;-79
2024/02/03 10:19:12;;;;;;;18.02;11.30;;;;;;;9.53;100.00;102051.00;4975890;28;20047;-80
2024/02/03 10:21:40;;;;;;;16.35;11.50;;;;;;;9.57;100.00;102048.06;4977519;28;20509;-79
2024/02/03 10:24:07;;;;;;;17.02;11.15;;;;;;;9.60;100.00;102053.19;4975720;28;20058;-79
2024/02/03 10:26:34;;;;;;;20.30;10.90;;;;;;;9.63;100.00;102052.97;4976167;28;20149;-78
2024/02/03 10:29:01;;;;;;;13.95;9.93;;;;;;;9.67;100.00;102044.88;4976090;28;20125;-78
2024/02/03 10:31:27;;;;;;;15.23;10.27;;;;;;;9.74;100.00;102028.56;4976071;28;20498;-80
2024/02/03 10:33:55;;;;;;;19.00;10.88;;;;;;;9.89;100.00;102039.97;4975900;28;20506;-79
2024/02/03 10:36:22;;;;;;;15.60;11.10;;;;;;;9.95;100.00;102036.09;4977527;28;20114;-79
2024/02/03 10:38:50;;;;;;;17.55;10.15;;;;;;;9.96;100.00;102043.94;4977433;28;20134;-79
2024/02/03 10:41:20;;;;;;;18.05;11.10;;;;;;;9.98;100.00;102041.19;4974255;28;20138;-78
2024/02/03 10:43:52;;;;;;;14.35;10.50;;;;;;;9.96;100.00;102025.44;4976182;28;20137;-80
2024/02/03 10:46:22;;;;;;;14.18;10.68;;;;;;;10.00;100.00;102021.66;4966633;28;20406;-79
2024/02/03 10:48:50;;;;;;;17.38;11.63;;;;;;;9.94;100.00;102037.88;4973808;28;20157;-79
2024/02/03 10:51:20;;;;;;;14.98;10.50;;;;;;;9.84;100.00;102032.31;4964080;28;20211;-80
2024/02/03 10:53:53;;;;;;;16.33;11.10;;;;;;;9.87;100.00;102026.84;4970157;28;20051;-79
2024/02/03 10:56:23;;;;;;;18.50;11.80;;;;;;;9.87;100.00;102024.22;4974137;28;20124;-77
2024/02/03 10:58:50;;;;;;;18.35;12.13;;;;;;;9.92;100.00;102034.50;4974529;28;20046;-77
2024/02/03 11:01:20;;;;;;;19.98;11.95;;;;;;;9.90;100.00;102025.78;4972531;28;20479;-78
2024/02/03 11:03:47;;;;;;;15.65;11.18;;;;;;;9.94;100.00;102029.94;4974202;28;20446;-78
2024/02/03 11:06:23;;;;;;;18.58;12.25;;;;;;;9.91;100.00;102030.16;4967559;28;20125;-77
2024/02/03 11:08:51;;;;;;;16.23;11.63;;;;;;;9.95;100.00;102020.22;4973492;28;20078;-79
2024/02/03 11:11:25;;;;;;;17.10;11.10;;;;;;;9.93;100.00;102020.31;4972670;28;20133;-77
2024/02/03 11:13:53;;;;;;;20.45;12.85;;;;;;;10.00;100.00;102026.06;4970626;28;20251;-77
2024/02/03 11:16:19;;;;;;;18.13;12.10;;;;;;;10.09;100.00;102025.50;4967585;28;20126;-78
2024/02/03 11:18:50;;;;;;;17.30;11.98;;;;;;;10.12;100.00;102012.91;4962600;28;20110;-79
2024/02/03 11:21:17;;;;;;;17.13;11.60;;;;;;;10.25;100.00;102012.19;4972854;28;20457;-79
2024/02/03 11:23:44;;;;;;;18.73;11.68;;;;;;;10.29;100.00;102001.31;4971110;28;20078;-78
2024/02/03 11:26:33;;;;;;;16.88;11.27;;;;;;;10.37;100.00;102009.59;4974968;28;20505;-79